Time;durP1;ratioP1;P1;durP2;ratioP2;P2;SDS_P1;SDS_P2;PMS_P1;PMS_P2;Temp;Humidity;BMP_temperature;BMP_pressure;BME280_temperature;BME280_humidity;BME280_pressure;Samples;Min_cycle;Max_cycle;Signal;HPM_P1;HPM_P2
2023/05/07 00:00:59;;;;;;;0.83;0.83;;;13.50;62.70;12.70;95918.00;;;;5033068;28;20215;-56
2023/05/07 00:03:27;;;;;;;0.97;0.97;;;13.50;63.70;12.70;95923.00;;;;5033106;28;20188;-56
2023/05/07 00:05:55;;;;;;;0.80;0.80;;;13.50;64.00;12.60;95927.00;;;;5033087;28;20695;-56
2023/05/07 00:08:22;;;;;;;0.80;0.80;;;13.40;63.90;12.60;95915.00;;;;5033352;28;20212;-56
2023/05/07 00:10:49;;;;;;;1.13;1.13;;;13.30;64.60;12.60;95924.00;;;;5032938;28;20217;-56
2023/05/07 00:13:16;;;;;;;1.50;1.20;;;13.30;64.60;12.70;95922.00;;;;5033020;28;20216;-56
2023/05/07 00:15:43;;;;;;;0.77;0.77;;;13.30;64.80;12.70;95913.00;;;;5033273;28;20192;-57
2023/05/07 00:18:10;;;;;;;0.90;0.90;;;13.30;64.60;12.50;95922.00;;;;5032998;28;20189;-57
2023/05/07 00:20:37;;;;;;;0.80;0.80;;;13.30;64.70;12.50;95918.00;;;;5033185;28;20216;-56
2023/05/07 00:23:06;;;;;;;1.30;1.30;;;13.20;64.90;12.50;95914.00;;;;5032944;28;20196;-56
2023/05/07 00:25:35;;;;;;;0.90;0.90;;;13.20;65.10;12.30;95917.00;;;;5032901;28;20204;-56
2023/05/07 00:28:03;;;;;;;0.77;0.77;;;13.10;64.80;12.30;95916.00;;;;5032867;28;20224;-56
2023/05/07 00:30:30;;;;;;;1.33;1.23;;;13.10;64.90;12.30;95910.00;;;;5036729;28;20212;-56
2023/05/07 00:32:57;;;;;;;1.33;1.33;;;13.00;65.30;12.40;95912.00;;;;5037349;28;20262;-57
2023/05/07 00:35:24;;;;;;;23.87;1.20;;;13.00;65.30;12.40;95904.00;;;;5036868;28;20648;-57
2023/05/07 00:37:52;;;;;;;0.60;0.60;;;13.00;65.50;12.40;95902.00;;;;5019041;28;20659;-57
2023/05/07 00:40:20;;;;;;;0.77;0.77;;;13.00;65.30;12.40;95898.00;;;;5018976;28;20216;-57
2023/05/07 00:42:48;;;;;;;1.57;1.47;;;13.00;65.50;12.30;95894.00;;;;5036690;28;20197;-58
2023/05/07 00:45:16;;;;;;;0.70;0.70;;;13.00;65.50;12.50;95887.00;;;;5036568;28;20193;-56
2023/05/07 00:47:44;;;;;;;0.83;0.83;;;13.10;66.70;12.50;95900.00;;;;5036786;28;20193;-56
2023/05/07 00:50:12;;;;;;;1.17;1.17;;;13.20;65.40;12.30;95894.00;;;;5036460;28;20228;-56
2023/05/07 00:52:41;;;;;;;0.70;0.70;;;13.10;64.60;12.30;95899.00;;;;5036371;28;20192;-57
2023/05/07 00:55:09;;;;;;;1.30;1.30;;;13.10;65.00;12.30;95889.00;;;;5036695;28;20268;-56
2023/05/07 00:57:41;;;;;;;1.53;1.43;;;13.00;65.20;12.10;95901.00;;;;5036379;28;20271;-56
2023/05/07 01:00:09;;;;;;;0.67;0.67;;;;;12.00;95902.00;;;;5036541;28;20271;-56
2023/05/07 01:02:37;;;;;;;0.73;0.73;;;12.80;65.80;12.00;95901.00;;;;5036516;28;20248;-56
2023/05/07 01:05:07;;;;;;;0.70;0.70;;;;;12.10;95891.00;;;;5036466;28;20208;-56
2023/05/07 01:07:36;;;;;;;0.60;0.60;;;12.70;67.00;12.00;95881.00;;;;5036240;28;20176;-56
2023/05/07 01:10:06;;;;;;;3.40;1.30;;;12.70;67.60;12.10;95880.00;;;;5036108;28;20213;-56
2023/05/07 01:12:35;;;;;;;0.57;0.57;;;12.70;68.20;12.10;95878.00;;;;5036028;28;20197;-56
2023/05/07 01:15:06;;;;;;;1.07;1.07;;;12.80;67.90;12.20;95889.00;;;;5036579;28;20247;-56
2023/05/07 01:17:35;;;;;;;1.43;1.33;;;12.80;67.60;12.10;95887.00;;;;5036596;28;20185;-56
2023/05/07 01:20:03;;;;;;;1.87;1.47;;;12.80;67.00;12.10;95885.00;;;;5036143;28;20212;-58
2023/05/07 01:22:36;;;;;;;1.03;1.03;;;12.70;67.50;12.20;95888.00;;;;5035894;28;20189;-56
2023/05/07 01:25:04;;;;;;;0.80;0.80;;;12.80;66.10;12.10;95884.00;;;;5035892;28;20177;-56
2023/05/07 01:27:33;;;;;;;0.90;0.90;;;12.70;66.20;11.90;95896.00;;;;5036080;28;20553;-56
2023/05/07 01:30:00;;;;;;;0.60;0.60;;;12.60;66.70;11.80;95888.00;;;;5035760;28;20208;-56
2023/05/07 01:32:34;;;;;;;0.70;0.70;;;12.50;67.20;11.60;95898.00;;;;5036773;28;20537;-56
2023/05/07 01:35:04;;;;;;;0.90;0.90;;;12.30;68.50;11.60;95891.00;;;;5035713;28;20204;-57
2023/05/07 01:37:33;;;;;;;0.90;0.90;;;12.30;69.70;11.70;95900.00;;;;5036028;28;20208;-56
2023/05/07 01:40:03;;;;;;;0.70;0.70;;;12.30;70.30;11.80;95894.00;;;;5034925;28;20208;-56
2023/05/07 01:42:30;;;;;;;0.90;0.90;;;12.40;70.70;11.70;95886.00;;;;5035534;28;20185;-57
2023/05/07 01:44:57;;;;;;;0.77;0.77;;;12.40;70.00;11.80;95881.00;;;;5035487;28;20200;-57
2023/05/07 01:47:26;;;;;;;0.70;0.70;;;12.50;69.10;11.90;95882.00;;;;5035421;28;20193;-56
2023/05/07 01:52:21;;;;;;;1.67;1.57;;;12.60;68.70;11.90;95884.00;;;;5033133;28;20232;-64
2023/05/07 01:54:49;;;;;;;0.93;0.93;;;12.60;69.40;11.90;95890.00;;;;5035157;28;20205;-64
2023/05/07 01:57:17;;;;;;;0.60;0.60;;;12.60;67.90;11.80;95880.00;;;;5035445;28;20231;-64
2023/05/07 01:59:44;;;;;;;1.50;1.20;;;12.60;68.90;11.80;95886.00;;;;5035156;28;20189;-65
2023/05/07 02:02:11;;;;;;;0.73;0.73;;;12.50;68.20;11.70;95877.00;;;;5015301;28;20718;-64
2023/05/07 02:04:38;;;;;;;0.77;0.77;;;12.40;68.90;11.70;95882.00;;;;5015320;28;20197;-64
2023/05/07 02:07:05;;;;;;;0.80;0.80;;;12.40;68.60;11.60;95882.00;;;;5015315;28;20189;-64
2023/05/07 02:09:32;;;;;;;1.33;1.30;;;12.30;69.30;11.60;95883.00;;;;5015422;28;20605;-64
2023/05/07 02:12:01;;;;;;;0.70;0.70;;;12.20;69.20;11.50;95886.00;;;;5015080;28;20309;-64
2023/05/07 02:14:28;;;;;;;0.77;0.77;;;12.20;69.90;11.40;95885.00;;;;5015245;28;20758;-65
2023/05/07 02:16:55;;;;;;;0.70;0.70;;;12.20;70.00;11.50;95894.00;;;;5015117;28;20189;-64
2023/05/07 02:19:22;;;;;;;0.80;0.80;;;12.20;70.10;11.50;95896.00;;;;5015011;28;20190;-64
2023/05/07 02:21:50;;;;;;;0.60;0.60;;;;;11.50;95886.00;;;;5015234;28;20224;-64
2023/05/07 02:24:17;;;;;;;1.27;1.20;;;12.20;70.20;11.60;95891.00;;;;5015280;28;20232;-64
2023/05/07 02:26:47;;;;;;;0.90;0.90;;;12.30;70.00;11.50;95887.00;;;;5015239;28;20190;-64
2023/05/07 02:29:15;;;;;;;0.60;0.60;;;12.30;70.60;11.50;95890.00;;;;5014869;28;20189;-64
2023/05/07 02:31:42;;;;;;;1.17;1.07;;;12.20;69.40;11.40;95890.00;;;;5014735;28;20206;-64
2023/05/07 02:34:09;;;;;;;1.47;1.03;;;12.20;70.20;11.40;95890.00;;;;5014911;28;20225;-64
2023/05/07 02:36:36;;;;;;;0.80;0.80;;;;;11.30;95892.00;;;;5014680;28;20200;-64
2023/05/07 02:39:04;;;;;;;0.70;0.70;;;12.10;70.20;11.40;95894.00;;;;5014677;28;20201;-64
2023/05/07 02:41:31;;;;;;;0.60;0.60;;;12.00;71.40;94.60;95887.00;;;;5014545;28;20265;-65
2023/05/07 02:43:58;;;;;;;0.70;0.70;;;12.00;71.10;11.40;95890.00;;;;4997043;28;20199;-64
2023/05/07 02:46:27;;;;;;;2.10;0.87;;;12.10;71.20;11.40;95892.00;;;;5014580;28;20224;-64
2023/05/07 02:48:54;;;;;;;0.90;0.90;;;12.00;71.30;11.30;95878.00;;;;5014760;28;20599;-64
2023/05/07 02:51:23;;;;;;;0.67;0.67;;;12.00;70.90;11.20;95880.00;;;;5013409;28;20221;-65
2023/05/07 02:53:50;;;;;;;0.60;0.60;;;;;11.10;95871.00;;;;5014298;28;20220;-64
2023/05/07 02:56:17;;;;;;;0.70;0.70;;;11.90;70.60;11.10;95863.00;;;;5014887;28;20200;-64
2023/05/07 02:58:44;;;;;;;0.70;0.70;;;11.90;71.70;11.20;95852.00;;;;5014309;28;20197;-64
2023/05/07 03:01:13;;;;;;;0.90;0.90;;;;;11.20;95854.00;;;;5014450;28;20205;-64
2023/05/07 03:03:42;;;;;;;1.30;1.20;;;11.90;70.90;11.10;95851.00;;;;5014240;28;20189;-64
2023/05/07 03:06:09;;;;;;;1.10;1.10;;;11.90;70.90;10.90;95865.00;;;;5014120;28;20196;-64
2023/05/07 03:08:36;;;;;;;0.80;0.80;;;11.60;70.50;10.80;95863.00;;;;5014153;28;20201;-64
2023/05/07 03:11:03;;;;;;;1.27;1.17;;;11.60;71.80;10.90;95873.00;;;;5013977;28;20304;-64
2023/05/07 03:13:30;;;;;;;1.00;1.00;;;11.60;72.10;10.80;95875.00;;;;5013974;28;20300;-64
2023/05/07 03:15:57;;;;;;;0.70;0.70;;;11.60;71.80;11.00;95874.00;;;;5014308;28;20291;-64
2023/05/07 03:18:24;;;;;;;0.77;0.77;;;11.50;71.30;10.80;95873.00;;;;5014477;28;20193;-64
2023/05/07 03:20:53;;;;;;;0.67;0.67;;;11.50;72.10;10.90;95874.00;;;;5013927;28;20217;-64
2023/05/07 03:23:20;;;;;;;0.83;0.83;;;11.60;71.70;10.90;95878.00;;;;5013892;28;20212;-64
2023/05/07 03:25:47;;;;;;;0.60;0.60;;;11.60;72.60;11.00;95866.00;;;;5014412;28;20192;-64
2023/05/07 03:28:14;;;;;;;2.77;1.17;;;11.70;72.20;11.00;95872.00;;;;5013823;28;20192;-65
2023/05/07 03:30:41;;;;;;;1.70;1.30;;;11.70;72.90;11.00;95866.00;;;;5013694;28;20205;-64
2023/05/07 03:33:08;;;;;;;0.80;0.80;;;11.70;72.30;10.90;95865.00;;;;5014077;28;20181;-64
2023/05/07 03:35:35;;;;;;;0.93;0.93;;;11.60;72.20;11.00;95865.00;;;;5013598;28;20695;-65
2023/05/07 03:38:04;;;;;;;0.97;0.97;;;11.60;72.90;11.00;95865.00;;;;5013837;28;20189;-65
2023/05/07 03:40:31;;;;;;;0.80;0.80;;;11.70;72.10;11.00;95855.00;;;;5013661;28;20607;-65
2023/05/07 03:42:58;;;;;;;3.30;1.30;;;11.60;71.60;10.90;95858.00;;;;5013605;28;20185;-64
2023/05/07 03:45:25;;;;;;;1.03;1.03;;;11.60;70.90;10.90;95851.00;;;;5013477;28;20201;-65
2023/05/07 03:47:52;;;;;;;1.60;1.43;;;11.60;70.70;10.90;95857.00;;;;5013763;28;20580;-64
2023/05/07 03:50:20;;;;;;;0.93;0.93;;;11.50;70.80;10.80;95851.00;;;;5013517;28;20219;-64
2023/05/07 03:52:47;;;;;;;0.63;0.63;;;11.60;71.70;10.80;95859.00;;;;5013415;28;20186;-65
2023/05/07 03:55:15;;;;;;;0.70;0.70;;;11.40;70.60;10.70;95853.00;;;;5013378;28;20220;-65
2023/05/07 03:57:42;;;;;;;0.70;0.70;;;11.40;71.60;10.60;95858.00;;;;5013385;28;20194;-65
2023/05/07 04:00:11;;;;;;;0.73;0.73;;;11.30;72.10;10.60;95859.00;;;;5013294;28;20213;-64
2023/05/07 04:02:38;;;;;;;0.60;0.60;;;11.30;71.70;10.50;95867.00;;;;5013066;28;20276;-65
2023/05/07 04:05:06;;;;;;;0.97;0.97;;;11.20;71.40;10.40;95869.00;;;;5013336;28;20541;-65
2023/05/07 04:07:33;;;;;;;0.77;0.77;;;11.20;71.40;10.40;95874.00;;;;5013356;28;20198;-64
2023/05/07 04:10:00;;;;;;;1.37;1.27;;;11.20;71.10;10.60;95863.00;;;;5013242;28;20217;-65
2023/05/07 04:12:28;;;;;;;1.00;1.00;;;11.20;71.50;10.50;95878.00;;;;5013381;28;20194;-65
2023/05/07 04:14:55;;;;;;;1.00;1.00;;;11.20;72.60;10.60;95874.00;;;;5013670;28;20213;-64
2023/05/07 04:17:22;;;;;;;1.10;1.10;;;11.20;72.50;10.60;95874.00;;;;5013254;28;20243;-65
2023/05/07 04:19:49;;;;;;;0.83;0.83;;;11.20;71.70;10.50;95879.00;;;;5013067;28;20201;-65
2023/05/07 04:22:16;;;;;;;0.73;0.73;;;11.20;72.60;10.50;95878.00;;;;5013439;28;20703;-65
2023/05/07 04:24:44;;;;;;;0.90;0.90;;;;;10.60;95882.00;;;;5013421;28;20198;-65
2023/05/07 04:27:11;;;;;;;0.60;0.60;;;11.40;71.50;10.60;95887.00;;;;5013249;28;20205;-65
2023/05/07 04:29:42;;;;;;;0.83;0.83;;;11.30;70.70;10.50;95883.00;;;;5013113;28;20189;-64
2023/05/07 04:32:09;;;;;;;0.70;0.70;;;11.30;72.50;10.40;95882.00;;;;5013042;28;20217;-64
2023/05/07 04:34:36;;;;;;;0.90;0.90;;;11.20;71.90;10.60;95884.00;;;;5013244;28;20335;-64
2023/05/07 04:37:03;;;;;;;0.60;0.60;;;11.20;72.80;10.70;95883.00;;;;5012987;28;20652;-65
2023/05/07 04:39:30;;;;;;;0.70;0.70;;;11.40;71.30;10.90;95876.00;;;;5013244;28;20194;-65
2023/05/07 04:41:57;;;;;;;0.90;0.90;;;11.50;70.70;10.90;95879.00;;;;5012917;28;20707;-64
2023/05/07 04:44:24;;;;;;;2.73;1.27;;;11.60;69.60;10.80;95882.00;;;;5013329;28;20206;-65
2023/05/07 04:46:53;;;;;;;1.10;1.10;;;11.60;70.20;10.70;95880.00;;;;5013270;28;20194;-65
2023/05/07 04:49:20;;;;;;;0.60;0.60;;;;;10.80;95874.00;;;;5012806;28;20186;-65
2023/05/07 04:51:47;;;;;;;1.13;1.10;;;11.50;69.60;10.80;95877.00;;;;5012726;28;20704;-65
2023/05/07 04:54:14;;;;;;;0.93;0.93;;;11.60;69.50;10.80;95885.00;;;;5013629;28;20563;-64
2023/05/07 04:56:41;;;;;;;0.87;0.87;;;11.50;70.30;10.90;95890.00;;;;5013106;28;20182;-65
2023/05/07 04:59:08;;;;;;;0.70;0.70;;;11.50;69.70;10.90;95886.00;;;;5013007;28;20185;-65
2023/05/07 05:01:35;;;;;;;1.30;1.20;;;11.70;70.10;11.00;95884.00;;;;5012805;28;20224;-65
2023/05/07 05:04:04;;;;;;;1.17;1.17;;;11.70;69.90;11.20;95883.00;;;;5013051;28;20259;-65
2023/05/07 05:06:31;;;;;;;1.20;1.20;;;11.80;69.60;11.20;95888.00;;;;5012969;28;20601;-65
2023/05/07 05:08:58;;;;;;;2.07;1.87;;;;;11.40;95888.00;;;;5012707;28;20213;-65
2023/05/07 05:11:25;;;;;;;0.60;0.60;;;12.10;68.70;11.40;95896.00;;;;5012684;28;20263;-66
2023/05/07 05:13:52;;;;;;;1.07;1.07;;;12.10;68.10;11.50;95889.00;;;;5012639;28;20194;-65
2023/05/07 05:16:19;;;;;;;1.13;1.13;;;12.10;67.70;11.50;95894.00;;;;5015740;28;20268;-65
2023/05/07 05:18:47;;;;;;;0.80;0.80;;;12.10;68.10;11.50;95895.00;;;;5016394;28;20283;-65
2023/05/07 05:21:15;;;;;;;0.73;0.73;;;;;11.50;95904.00;;;;5016096;28;20220;-65
2023/05/07 05:23:43;;;;;;;0.70;0.70;;;;;11.50;95909.00;;;;5016121;28;20200;-65
2023/05/07 05:26:10;;;;;;;0.93;0.93;;;12.10;67.30;11.50;95906.00;;;;5015976;28;20192;-65
2023/05/07 05:28:37;;;;;;;1.07;0.90;;;12.10;68.40;11.60;95901.00;;;;5016002;28;20193;-65
2023/05/07 05:31:04;;;;;;;0.90;0.90;;;12.40;67.70;11.80;95899.00;;;;5016162;28;20232;-65
2023/05/07 05:33:31;;;;;;;1.07;1.00;;;12.30;67.00;11.70;95908.00;;;;5016116;28;20189;-65
2023/05/07 05:35:58;;;;;;;0.70;0.70;;;12.30;67.60;11.60;95899.00;;;;5015739;28;20316;-65
2023/05/07 05:38:26;;;;;;;0.90;0.90;;;12.30;67.70;11.70;95900.00;;;;5015724;28;20293;-65
2023/05/07 05:40:53;;;;;;;1.80;1.27;;;12.50;68.00;12.00;95899.00;;;;5015635;28;20213;-66
2023/05/07 05:43:20;;;;;;;0.60;0.60;;;12.50;67.10;11.80;95922.00;;;;5015720;28;20194;-65
2023/05/07 05:45:47;;;;;;;0.90;0.90;;;12.50;68.00;11.90;95915.00;;;;4998147;28;20197;-66
2023/05/07 05:48:14;;;;;;;0.80;0.80;;;12.60;73.60;12.00;95908.00;;;;5015874;28;20208;-65
2023/05/07 05:50:43;;;;;;;0.87;0.87;;;12.70;68.10;12.30;95916.00;;;;4997845;28;20735;-65
2023/05/07 05:53:10;;;;;;;0.60;0.60;;;;;12.50;95907.00;;;;5015593;28;20196;-66
2023/05/07 05:55:39;;;;;;;0.70;0.70;;;13.10;67.10;12.60;95907.00;;;;5015969;28;20697;-66
2023/05/07 05:58:06;;;;;;;0.70;0.70;;;13.30;66.80;12.80;95905.00;;;;5015480;28;20197;-66
2023/05/07 06:00:33;;;;;;;0.80;0.80;;;;;13.00;95907.00;;;;5015890;28;20687;-66
2023/05/07 06:03:00;;;;;;;0.90;0.90;;;13.60;65.20;13.10;95906.00;;;;5015391;28;20190;-66
2023/05/07 06:05:28;;;;;;;0.80;0.80;;;13.80;65.00;13.30;95902.00;;;;5015333;28;20197;-66
2023/05/07 06:07:55;;;;;;;0.80;0.80;;;13.90;64.70;13.30;95905.00;;;;5015275;28;20703;-66
2023/05/07 06:10:22;;;;;;;0.70;0.70;;;13.90;64.40;13.30;95913.00;;;;5015359;28;20213;-65
2023/05/07 06:12:50;;;;;;;1.80;0.83;;;;;13.30;95911.00;;;;5015233;28;20705;-65
2023/05/07 06:15:17;;;;;;;1.13;1.03;;;14.00;75.60;13.30;95912.00;;;;5015104;28;20733;-66
2023/05/07 06:17:45;;;;;;;1.13;1.13;;;;;13.40;95910.00;;;;5015142;28;20603;-66
2023/05/07 06:20:12;;;;;;;0.90;0.90;;;14.30;68.00;13.20;95910.00;;;;5015028;28;20585;-65
2023/05/07 06:22:39;;;;;;;1.13;1.13;;;13.90;64.30;13.10;95911.00;;;;5015241;28;20185;-66
2023/05/07 06:25:08;;;;;;;0.97;0.97;;;;;13.30;95918.00;;;;5015208;28;20553;-66
2023/05/07 06:27:35;;;;;;;0.60;0.60;;;14.10;65.30;13.60;95917.00;;;;5015068;28;20205;-66
2023/05/07 06:30:04;;;;;;;0.97;0.97;;;14.30;64.50;13.80;95916.00;;;;5014695;28;20204;-66
2023/05/07 06:32:31;;;;;;;0.93;0.93;;;14.40;88.50;14.00;95917.00;;;;5015016;28;20195;-66
2023/05/07 06:34:58;;;;;;;0.60;0.60;;;14.50;63.10;14.20;95923.00;;;;5014629;28;20225;-65
2023/05/07 06:37:26;;;;;;;0.70;0.70;;;14.70;62.20;14.20;95918.00;;;;5014444;28;20201;-65
2023/05/07 06:39:53;;;;;;;0.80;0.80;;;14.80;62.80;14.30;95919.00;;;;5014845;28;20204;-66
2023/05/07 06:42:20;;;;;;;1.00;1.00;;;14.90;62.30;14.40;95920.00;;;;5014912;28;20604;-65
2023/05/07 06:44:47;;;;;;;0.97;0.97;;;15.00;62.50;14.60;95915.00;;;;5014797;28;20209;-65
2023/05/07 06:47:15;;;;;;;0.80;0.80;;;15.30;62.00;14.80;95916.00;;;;5014484;28;20224;-65
2023/05/07 06:49:43;;;;;;;0.90;0.90;;;15.40;61.50;15.00;95910.00;;;;5015021;28;20553;-65
2023/05/07 06:52:10;;;;;;;0.50;0.50;;;15.60;61.90;15.30;95905.00;;;;5014372;28;20217;-66
2023/05/07 06:54:37;;;;;;;1.13;1.13;;;15.90;58.70;15.50;95909.00;;;;5014347;28;20190;-66
2023/05/07 06:57:04;;;;;;;1.23;1.23;;;;;15.70;95920.00;;;;5014333;28;20663;-66
2023/05/07 06:59:32;;;;;;;1.23;1.23;;;;;15.70;95917.00;;;;5014301;28;20193;-65
2023/05/07 07:01:59;;;;;;;1.60;1.37;;;;;15.90;95918.00;;;;5014149;28;20267;-65
2023/05/07 07:04:28;;;;;;;0.67;0.67;;;;;16.00;95912.00;;;;5014411;28;20198;-65
2023/05/07 07:06:56;;;;;;;0.70;0.70;;;;;16.10;95923.00;;;;5014459;28;20194;-65
2023/05/07 07:09:24;;;;;;;1.00;1.00;;;;;16.00;95918.00;;;;5014191;28;20220;-65
2023/05/07 07:11:51;;;;;;;1.10;1.10;;;;;16.10;95918.00;;;;5014267;28;20591;-65
2023/05/07 07:14:19;;;;;;;0.80;0.80;;;;;16.20;95921.00;;;;5013991;28;20198;-65
2023/05/07 07:16:46;;;;;;;0.80;0.80;;;;;16.30;95916.00;;;;5013956;28;20271;-66
2023/05/07 07:19:15;;;;;;;0.70;0.70;;;;;16.30;95918.00;;;;5014000;28;20194;-65
2023/05/07 07:21:44;;;;;;;0.90;0.90;;;;;16.40;95922.00;;;;5013873;28;20221;-65
2023/05/07 07:24:12;;;;;;;0.80;0.80;;;;;16.40;95926.00;;;;5014085;28;20588;-65
2023/05/07 07:26:39;;;;;;;1.00;1.00;;;;;16.30;95923.00;;;;5013891;28;20189;-65
2023/05/07 07:29:07;;;;;;;1.13;1.13;;;;;16.40;95921.00;;;;5013917;28;20272;-65
2023/05/07 07:31:35;;;;;;;0.80;0.80;;;;;16.50;95927.00;;;;5013820;28;20287;-65
2023/05/07 07:34:02;;;;;;;0.60;0.60;;;;;16.50;95918.00;;;;5013939;28;20204;-65
2023/05/07 07:36:29;;;;;;;0.90;0.90;;;;;16.80;95920.00;;;;5014005;28;20225;-65
2023/05/07 07:38:58;;;;;;;1.63;1.53;;;;;17.00;95928.00;;;;5014298;28;20201;-65
2023/05/07 07:41:25;;;;;;;0.80;0.80;;;17.40;53.70;17.00;95920.00;;;;5013615;28;20213;-65
2023/05/07 07:43:52;;;;;;;0.50;0.50;;;17.70;54.40;17.40;95920.00;;;;5013566;28;20201;-65
2023/05/07 07:46:19;;;;;;;0.70;0.70;;;17.70;55.10;17.60;95917.00;;;;5013534;28;20193;-66
2023/05/07 07:48:47;;;;;;;1.13;1.13;;;;;17.80;95916.00;;;;5013503;28;20652;-66
2023/05/07 07:51:14;;;;;;;0.80;0.80;;;;;18.30;95917.00;;;;5036392;22;20228;-56
2023/05/07 07:53:42;;;;;;;0.67;0.67;;;;;18.30;95919.00;;;;5053201;28;20294;-56
2023/05/07 07:56:11;;;;;;;4.57;1.77;;;;;18.30;95918.00;;;;5052972;28;20216;-56
2023/05/07 07:58:39;;;;;;;0.97;0.97;;;;;18.20;95930.00;;;;5053320;28;20215;-56
2023/05/07 08:01:06;;;;;;;0.90;0.90;;;;;18.10;95937.00;;;;5035139;28;20220;-56
2023/05/07 08:03:33;;;;;;;0.70;0.70;;;;;17.90;95931.00;;;;5053290;28;20211;-56
2023/05/07 08:06:01;;;;;;;4.33;1.47;;;;;18.10;95933.00;;;;5053526;28;20199;-56
2023/05/07 08:08:28;;;;;;;1.27;1.17;;;18.60;51.30;18.20;95935.00;;;;5052898;28;20200;-55
2023/05/07 08:10:55;;;;;;;0.87;0.87;;;18.60;51.20;18.50;95932.00;;;;5035087;28;20212;-56
2023/05/07 08:13:26;;;;;;;1.13;1.13;;;;;18.80;95918.00;;;;5035508;28;20199;-57
2023/05/07 08:15:53;;;;;;;0.90;0.90;;;19.10;50.10;19.00;95926.00;;;;5052735;28;20709;-57
2023/05/07 08:18:20;;;;;;;0.57;0.57;;;19.30;47.70;18.70;95924.00;;;;5035708;28;20196;-57
2023/05/07 08:20:47;;;;;;;0.73;0.73;;;19.20;48.70;18.80;95921.00;;;;5052678;28;20224;-57
2023/05/07 08:23:14;;;;;;;0.87;0.87;;;19.20;47.40;19.10;95919.00;;;;5052804;28;20195;-57
2023/05/07 08:25:42;;;;;;;1.80;1.50;;;19.40;47.50;19.20;95923.00;;;;5052832;28;20196;-57
2023/05/07 08:28:10;;;;;;;0.80;0.80;;;;;19.40;95929.00;;;;5053197;28;20234;-57
2023/05/07 08:30:38;;;;;;;0.80;0.80;;;;;19.20;95933.00;;;;5053070;28;20199;-57
2023/05/07 08:33:06;;;;;;;0.50;0.50;;;;;19.10;95932.00;;;;5053045;28;20540;-57
2023/05/07 08:35:33;;;;;;;1.30;1.20;;;19.70;45.20;19.00;95928.00;;;;5052722;28;20219;-57
2023/05/07 08:38:00;;;;;;;0.67;0.67;;;19.50;46.80;18.90;95932.00;;;;5052703;28;20192;-56
2023/05/07 08:40:28;;;;;;;1.13;1.10;;;19.50;46.90;19.00;95920.00;;;;5052589;28;20681;-56
2023/05/07 08:42:57;;;;;;;0.63;0.63;;;19.50;46.10;19.20;95927.00;;;;5052595;28;20208;-56
2023/05/07 08:45:28;;;;;;;0.50;0.50;;;19.60;47.20;19.20;95920.00;;;;5052869;28;20200;-56
2023/05/07 08:48:02;;;;;;;0.77;0.77;;;19.70;46.70;19.20;95924.00;;;;5052564;28;20677;-56
2023/05/07 08:50:30;;;;;;;1.20;1.20;;;19.80;47.10;19.10;95935.00;;;;5054838;28;20579;-56
2023/05/07 08:52:58;;;;;;;0.80;0.80;;;19.60;46.10;19.30;95937.00;;;;5056178;28;20246;-57
2023/05/07 08:55:25;;;;;;;0.57;0.57;;;19.70;45.90;19.20;95930.00;;;;5056263;28;20216;-56
2023/05/07 08:57:53;;;;;;;1.17;1.17;;;19.70;46.80;19.50;95931.00;;;;5056349;28;20270;-56
2023/05/07 09:00:20;;;;;;;0.93;0.93;;;19.90;46.20;19.60;95932.00;;;;5056275;28;20220;-56
2023/05/07 09:02:48;;;;;;;0.50;0.50;;;20.00;45.50;19.60;95939.00;;;;5056328;28;20220;-56
2023/05/07 09:05:16;;;;;;;1.00;1.00;;;20.00;46.20;19.50;95932.00;;;;5056306;28;20184;-56
2023/05/07 09:07:44;;;;;;;1.13;1.13;;;20.00;45.10;19.70;95934.00;;;;5055950;28;20196;-56
2023/05/07 09:10:12;;;;;;;0.50;0.50;;;20.10;45.30;19.90;95929.00;;;;5056251;28;20196;-56
2023/05/07 09:12:39;;;;;;;0.63;0.63;;;20.20;45.90;20.00;95925.00;;;;5056031;28;20219;-56
2023/05/07 09:15:08;;;;;;;0.77;0.77;;;20.40;45.10;20.30;95918.00;;;;5056179;28;20553;-56
2023/05/07 09:17:35;;;;;;;0.70;0.70;;;20.70;45.70;20.60;95918.00;;;;5056182;28;20223;-56
2023/05/07 09:20:07;;;;;;;1.00;1.00;;;20.90;60.30;20.70;95915.00;;;;5037930;28;20196;-56
2023/05/07 09:22:38;;;;;;;0.55;0.55;;;21.00;60.40;20.90;95915.00;;;;5055765;28;20212;-56
2023/05/07 09:25:07;;;;;;;1.15;1.15;;;;;21.10;95908.00;;;;5056076;28;20279;-56
2023/05/07 09:27:34;;;;;;;0.50;0.50;;;21.40;42.30;21.30;95912.00;;;;5037703;28;20290;-56
2023/05/07 09:30:06;;;;;;;1.23;1.13;;;21.60;42.20;21.60;95906.00;;;;5055675;28;20188;-56
2023/05/07 09:32:37;;;;;;;0.95;0.95;;;21.80;44.00;21.50;95913.00;;;;5055911;28;20211;-55
2023/05/07 09:35:06;;;;;;;0.70;0.70;;;21.80;46.60;21.80;95909.00;;;;5037755;28;20189;-56
2023/05/07 09:37:33;;;;;;;0.93;0.88;;;22.10;47.10;21.70;95913.00;;;;5055525;28;20239;-56
2023/05/07 09:40:02;;;;;;;0.63;0.63;;;22.10;40.20;21.40;95905.00;;;;5055738;28;20188;-56
2023/05/07 09:42:30;;;;;;;0.60;0.60;;;;;21.70;95906.00;;;;5055667;28;20605;-56
2023/05/07 09:44:57;;;;;;;1.42;1.35;;;22.00;39.30;21.80;95907.00;;;;5037525;28;20242;-56
2023/05/07 09:47:26;;;;;;;0.80;0.80;;;22.20;48.10;22.30;95905.00;;;;5055623;28;20192;-56
2023/05/07 09:49:58;;;;;;;0.60;0.60;;;;;22.30;95903.00;;;;5055256;28;20195;-56
2023/05/07 09:52:28;;;;;;;0.50;0.50;;;22.70;42.70;22.30;95896.00;;;;5055259;28;20227;-56
2023/05/07 09:54:59;;;;;;;0.80;0.80;;;22.80;40.00;22.50;95890.00;;;;5055243;28;20193;-56
2023/05/07 09:57:29;;;;;;;1.52;1.42;;;22.90;39.60;22.60;95896.00;;;;5055419;28;20250;-56
2023/05/07 09:59:59;;;;;;;1.08;0.98;;;22.90;39.10;22.90;95896.00;;;;5055348;28;20195;-56
2023/05/07 10:02:31;;;;;;;1.13;1.13;;;23.10;39.30;23.20;95879.00;;;;5054680;28;20275;-56
2023/05/07 10:05:00;;;;;;;0.70;0.70;;;23.40;38.00;23.40;95888.00;;;;5055591;28;20204;-57
2023/05/07 10:07:28;;;;;;;1.52;1.42;;;23.60;37.20;23.50;95887.00;;;;5055012;28;20275;-56
2023/05/07 10:09:56;;;;;;;0.57;0.57;;;23.80;35.90;23.00;95894.00;;;;5055170;28;20188;-56
2023/05/07 10:12:25;;;;;;;1.25;1.15;;;23.50;36.10;22.90;95884.00;;;;5055140;28;20216;-56
2023/05/07 10:14:56;;;;;;;1.10;1.10;;;23.40;37.20;22.80;95892.00;;;;5055184;28;20184;-56
2023/05/07 10:17:25;;;;;;;1.27;1.23;;;23.20;37.30;22.90;95878.00;;;;5037014;28;20223;-57
2023/05/07 10:19:54;;;;;;;0.70;0.70;;;23.30;37.10;23.00;95877.00;;;;5055552;28;20561;-55
2023/05/07 10:22:23;;;;;;;0.43;0.43;;;23.30;41.20;23.10;95876.00;;;;5054654;28;20208;-55
2023/05/07 10:24:54;;;;;;;0.70;0.70;;;23.40;35.80;23.80;95900.00;;;;5054755;28;20267;-55
2023/05/07 10:27:24;;;;;;;0.70;0.70;;;23.90;36.10;23.40;95884.00;;;;5054950;28;20177;-55
2023/05/07 10:30:07;;;;;;;1.05;1.05;;;23.80;34.20;22.80;95847.00;;;;5054650;28;20197;-55
2023/05/07 10:32:43;;;;;;;0.80;0.80;;;23.40;33.40;22.30;95891.00;;;;5054835;28;20282;-56
2023/05/07 10:35:17;;;;;;;0.40;0.40;;;22.90;34.00;22.50;95883.00;;;;5054799;28;20184;-55
2023/05/07 10:37:45;;;;;;;0.65;0.65;;;23.00;33.70;22.50;95886.00;;;;5054630;28;20207;-55
2023/05/07 10:40:14;;;;;;;0.95;0.95;;;22.90;34.60;22.60;95891.00;;;;5054439;28;20188;-55
2023/05/07 10:42:55;;;;;;;2.60;0.98;;;23.00;34.90;22.40;95896.00;;;;5054246;28;20683;-55
2023/05/07 10:45:26;;;;;;;0.70;0.70;;;22.90;35.20;22.00;95893.00;;;;5054338;28;20180;-56
2023/05/07 10:48:11;;;;;;;0.73;0.73;;;22.60;35.80;22.10;95899.00;;;;5036378;28;20674;-56
2023/05/07 10:50:39;;;;;;;2.63;0.98;;;22.60;32.00;21.90;95900.00;;;;5054322;28;20523;-55
2023/05/07 10:53:28;;;;;;;0.98;0.98;;;22.40;32.00;21.70;95897.00;;;;5054047;28;20188;-55
2023/05/07 10:56:30;;;;;;;0.73;0.73;;;22.20;32.40;21.50;95902.00;;;;5053953;28;20256;-55
2023/05/07 10:59:27;;;;;;;0.85;0.85;;;22.10;32.90;21.30;95911.00;;;;5054295;28;20183;-55
2023/05/07 11:01:57;;;;;;;0.70;0.70;;;;;21.00;95915.00;;;;5053559;28;20228;-55
2023/05/07 11:04:26;;;;;;;0.80;0.80;;;21.70;38.80;20.80;95916.00;;;;5053903;28;20199;-57
2023/05/07 11:07:31;;;;;;;0.70;0.70;;;21.50;43.10;20.50;95919.00;;;;5054129;28;20601;-56
2023/05/07 11:10:07;;;;;;;0.40;0.40;;;;;20.10;95920.00;;;;5054892;28;20565;-56
2023/05/07 11:12:54;;;;;;;0.70;0.70;;;;;19.80;95936.00;;;;5053089;28;20212;-56
2023/05/07 11:15:45;;;;;;;0.73;0.73;;;;;19.50;95942.00;;;;5053765;28;20218;-56
2023/05/07 11:18:18;;;;;;;0.83;0.83;;;;;19.40;95935.00;;;;5053726;28;20172;-55